Time;durP1;ratioP1;P1;durP2;ratioP2;P2;SDS_P1;SDS_P2;PMS_P1;PMS_P2;Temp;Humidity;BMP_temperature;BMP_pressure;BME280_temperature;BME280_humidity;BME280_pressure;Samples;Min_cycle;Max_cycle;Signal;HPM_P1;HPM_P2
2021/11/07 00:00:12;;;;;;;1.60;1.27;;;21.60;38.60;;;;;;5092644;28;20450;-61
2021/11/07 00:05:40;;;;;;;1.60;1.30;;;21.60;38.70;;;;;;5074832;28;20390;-61
2021/11/07 00:10:54;;;;;;;1.70;1.42;;;21.50;38.70;;;;;;5092101;28;20377;-61
2021/11/07 00:13:23;;;;;;;1.50;1.23;;;21.60;38.70;;;;;;5092293;28;20733;-76
2021/11/07 00:15:49;;;;;;;1.80;1.42;;;21.60;38.70;;;;;;5108053;28;20920;-61
2021/11/07 00:18:27;;;;;;;2.03;1.40;;;21.50;38.60;;;;;;5092125;28;20416;-61
2021/11/07 00:20:58;;;;;;;1.85;1.40;;;21.50;38.60;;;;;;5091220;28;20426;-61
2021/11/07 00:28:56;;;;;;;2.25;1.60;;;21.50;38.60;;;;;;5091681;28;20372;-62
2021/11/07 00:36:41;;;;;;;1.92;1.60;;;21.50;38.60;;;;;;5091813;28;20470;-61
2021/11/07 00:45:21;;;;;;;2.00;1.70;;;21.50;38.70;;;;;;5091650;28;20424;-61
2021/11/07 00:50:05;;;;;;;1.83;1.50;;;21.50;38.70;;;;;;5092059;28;20470;-61
2021/11/07 01:00:14;;;;;;;1.83;1.50;;;21.50;38.80;;;;;;5091517;28;20466;-61
2021/11/07 01:02:41;;;;;;;2.50;1.50;;;21.50;38.70;;;;;;5091242;28;20393;-61
2021/11/07 01:05:24;;;;;;;2.10;1.60;;;21.50;38.70;;;;;;5091718;28;20390;-62
2021/11/07 01:07:50;;;;;;;2.33;1.80;;;21.50;38.80;;;;;;5091572;28;20374;-62
2021/11/07 01:10:16;;;;;;;1.70;1.50;;;21.50;38.80;;;;;;5091470;28;20404;-61
2021/11/07 01:12:42;;;;;;;2.08;1.42;;;21.50;38.70;;;;;;5091049;28;20439;-61
2021/11/07 01:15:08;;;;;;;1.95;1.48;;;21.50;38.70;;;;;;5091476;28;20394;-76
2021/11/07 01:17:34;;;;;;;2.08;1.52;;;21.50;38.70;;;;;;5091402;28;20415;-61
2021/11/07 01:19:59;;;;;;;2.03;1.50;;;21.50;38.70;;;;;;5091340;28;20402;-69
2021/11/07 01:25:07;;;;;;;1.95;1.50;;;21.50;38.70;;;;;;5091353;28;20955;-62
2021/11/07 01:27:37;;;;;;;2.00;1.40;;;21.50;38.70;;;;;;5091443;28;20393;-61
2021/11/07 01:30:08;;;;;;;1.90;1.50;;;21.50;38.70;;;;;;5091357;28;20393;-62
2021/11/07 01:32:46;;;;;;;2.08;1.60;;;21.50;38.70;;;;;;5091095;28;20370;-61
2021/11/07 01:35:22;;;;;;;1.73;1.58;;;21.50;38.70;;;;;;5076919;28;20885;-61
2021/11/07 01:38:09;;;;;;;2.13;1.70;;;21.50;38.70;;;;;;5095398;28;20382;-61
2021/11/07 01:40:56;;;;;;;2.00;1.60;;;21.50;38.70;;;;;;5094931;28;20412;-61
2021/11/07 01:43:22;;;;;;;1.73;1.40;;;21.50;38.70;;;;;;5095279;28;20878;-61
2021/11/07 01:45:54;;;;;;;1.92;1.50;;;21.40;38.60;;;;;;5095267;28;20386;-61
2021/11/07 01:48:25;;;;;;;1.77;1.50;;;21.40;38.60;;;;;;5095213;28;21092;-61
2021/11/07 01:50:56;;;;;;;2.08;1.42;;;21.40;38.70;;;;;;5094741;28;20732;-62
2021/11/07 01:53:26;;;;;;;1.73;1.48;;;21.40;38.60;;;;;;5095030;28;20385;-61
2021/11/07 01:55:53;;;;;;;1.90;1.50;;;21.40;38.60;;;;;;5095076;28;20435;-61
2021/11/07 01:58:20;;;;;;;2.00;1.58;;;21.40;38.60;;;;;;5076789;28;20774;-63
2021/11/07 02:00:46;;;;;;;2.05;1.60;;;21.40;38.60;;;;;;5094373;28;20417;-61
2021/11/07 02:03:12;;;;;;;1.90;1.60;;;21.40;38.60;;;;;;5094841;28;20427;-77
2021/11/07 02:05:39;;;;;;;1.95;1.60;;;21.50;38.70;;;;;;5094792;28;20439;-61
2021/11/07 02:08:06;;;;;;;2.30;1.60;;;21.40;38.60;;;;;;5094707;28;20384;-62
2021/11/07 02:10:33;;;;;;;2.00;1.60;;;21.40;38.60;;;;;;5094490;28;20474;-62
2021/11/07 02:12:59;;;;;;;2.40;1.75;;;21.40;39.10;;;;;;5094479;28;20899;-61
2021/11/07 02:15:25;;;;;;;1.60;1.40;;;21.40;38.60;;;;;;5094300;28;20444;-61
2021/11/07 02:17:51;;;;;;;2.17;1.73;;;21.40;38.60;;;;;;5094571;28;20374;-61
2021/11/07 02:20:32;;;;;;;2.10;1.60;;;21.40;38.50;;;;;;5094419;28;20804;-61
2021/11/07 02:22:59;;;;;;;2.75;1.90;;;21.40;38.60;;;;;;5094337;28;20389;-61
2021/11/07 02:25:26;;;;;;;2.00;1.67;;;21.50;38.60;;;;;;5094420;28;20386;-61
2021/11/07 02:27:53;;;;;;;1.88;1.50;;;21.50;38.60;;;;;;5094443;28;20424;-61
2021/11/07 02:30:19;;;;;;;2.10;1.75;;;21.50;38.60;;;;;;5076117;28;20405;-65
2021/11/07 02:32:47;;;;;;;2.10;1.70;;;21.40;38.60;;;;;;5093941;28;20412;-61
2021/11/07 02:35:13;;;;;;;2.03;1.60;;;21.40;38.60;;;;;;5094260;28;20414;-77
2021/11/07 02:37:39;;;;;;;2.35;1.60;;;21.40;38.60;;;;;;5094241;28;20394;-62
2021/11/07 02:40:07;;;;;;;2.67;1.57;;;21.40;38.60;;;;;;5094081;28;20413;-61
2021/11/07 02:42:36;;;;;;;1.70;1.50;;;21.40;38.60;;;;;;5093887;28;20389;-61
2021/11/07 02:45:05;;;;;;;1.70;1.40;;;21.40;38.60;;;;;;5093340;28;20389;-62
2021/11/07 02:47:31;;;;;;;1.83;1.50;;;21.40;38.60;;;;;;5094087;28;20386;-62
2021/11/07 02:49:57;;;;;;;2.10;1.60;;;21.40;38.50;;;;;;5094154;28;20393;-61
2021/11/07 02:52:23;;;;;;;1.73;1.60;;;21.40;38.50;;;;;;5093914;28;20754;-62
2021/11/07 02:54:50;;;;;;;1.90;1.50;;;21.40;38.50;;;;;;5093441;28;20405;-62
2021/11/07 02:57:20;;;;;;;1.83;1.45;;;21.40;38.50;;;;;;5093840;28;20902;-61
2021/11/07 02:59:49;;;;;;;2.00;1.60;;;21.40;38.60;;;;;;5093746;28;20417;-61
2021/11/07 03:02:15;;;;;;;1.83;1.48;;;21.40;38.50;;;;;;5093732;28;20425;-62
2021/11/07 03:04:41;;;;;;;1.80;1.50;;;21.40;38.50;;;;;;5093325;28;20896;-61
2021/11/07 03:07:07;;;;;;;2.00;1.60;;;21.40;38.60;;;;;;5093626;28;20390;-62
2021/11/07 03:09:35;;;;;;;2.00;1.52;;;21.40;38.60;;;;;;5093690;28;20863;-62
2021/11/07 03:12:03;;;;;;;2.15;1.70;;;21.40;38.60;;;;;;5093464;28;20429;-61
2021/11/07 03:14:39;;;;;;;1.92;1.55;;;21.40;38.60;;;;;;5093559;28;20394;-61
2021/11/07 03:17:06;;;;;;;1.70;1.40;;;21.30;38.60;;;;;;5093500;28;20406;-77
2021/11/07 03:19:34;;;;;;;2.03;1.55;;;21.30;39.10;;;;;;5093305;28;20401;-61
2021/11/07 03:22:05;;;;;;;1.60;1.30;;;21.30;38.50;;;;;;5093113;28;20429;-61
2021/11/07 03:24:31;;;;;;;1.80;1.50;;;21.30;38.50;;;;;;5093329;28;20383;-61
2021/11/07 03:26:58;;;;;;;1.80;1.50;;;21.30;38.50;;;;;;5092848;28;20435;-61
2021/11/07 03:29:32;;;;;;;2.10;1.55;;;21.30;38.50;;;;;;5093191;28;20381;-61
2021/11/07 03:32:06;;;;;;;1.90;1.58;;;21.30;38.50;;;;;;5093235;28;20394;-62
2021/11/07 03:34:34;;;;;;;1.60;1.30;;;21.30;38.50;;;;;;5093098;28;20445;-61
2021/11/07 03:37:08;;;;;;;1.40;1.30;;;21.30;38.50;;;;;;5092890;28;20887;-76
2021/11/07 03:39:36;;;;;;;1.55;1.35;;;21.30;38.40;;;;;;5093018;28;20410;-61
2021/11/07 03:42:05;;;;;;;1.60;1.30;;;21.40;38.50;;;;;;5092934;28;20759;-71
2021/11/07 03:44:31;;;;;;;1.53;1.20;;;21.40;38.50;;;;;;5093011;28;20382;-61
2021/11/07 03:46:57;;;;;;;1.45;1.10;;;21.30;38.50;;;;;;5092461;28;20416;-61
2021/11/07 03:49:23;;;;;;;1.77;1.38;;;21.40;38.50;;;;;;5092780;28;20386;-61
2021/11/07 03:51:50;;;;;;;1.70;1.30;;;21.30;38.50;;;;;;5092808;28;20390;-64
2021/11/07 03:54:17;;;;;;;1.67;1.30;;;21.30;38.50;;;;;;5092697;28;20852;-69
2021/11/07 03:56:43;;;;;;;1.70;1.27;;;21.30;38.50;;;;;;5091417;28;20401;-61
2021/11/07 03:59:09;;;;;;;1.80;1.30;;;21.40;38.50;;;;;;5092609;28;20473;-62
2021/11/07 04:01:36;;;;;;;1.53;1.30;;;21.30;38.40;;;;;;5074478;28;20540;-61
2021/11/07 04:04:06;;;;;;;1.33;1.03;;;21.30;38.50;;;;;;5092520;28;20400;-62
2021/11/07 04:06:32;;;;;;;1.50;1.20;;;21.30;38.50;;;;;;5092589;28;20397;-61
2021/11/07 04:09:00;;;;;;;1.48;1.00;;;21.30;38.50;;;;;;5092107;28;20386;-61
2021/11/07 04:11:26;;;;;;;1.70;1.38;;;21.30;38.40;;;;;;5092519;28;20382;-62
2021/11/07 04:13:52;;;;;;;1.40;1.10;;;21.30;38.40;;;;;;5092453;28;20391;-61
2021/11/07 04:16:17;;;;;;;1.80;1.20;;;21.30;38.40;;;;;;5092326;28;20394;-65
2021/11/07 04:18:45;;;;;;;1.50;1.30;;;21.30;38.40;;;;;;5091948;28;20385;-61
2021/11/07 04:21:11;;;;;;;1.55;1.30;;;21.30;38.40;;;;;;5092005;28;20433;-62
2021/11/07 04:23:37;;;;;;;1.33;1.10;;;21.30;38.40;;;;;;5092339;28;20393;-61
2021/11/07 04:26:03;;;;;;;1.40;1.13;;;21.30;38.50;;;;;;5073880;28;20465;-61
2021/11/07 04:28:30;;;;;;;1.40;1.08;;;21.30;38.50;;;;;;5073893;28;20398;-61
2021/11/07 04:30:56;;;;;;;1.30;1.10;;;21.30;38.50;;;;;;5091622;28;20390;-62
2021/11/07 04:33:23;;;;;;;1.52;1.20;;;21.30;38.50;;;;;;5092097;28;20467;-61
2021/11/07 04:35:49;;;;;;;1.50;1.05;;;21.30;38.50;;;;;;5091901;28;20392;-68
2021/11/07 04:38:15;;;;;;;1.40;1.07;;;21.30;38.50;;;;;;5091866;28;20421;-71
2021/11/07 04:40:42;;;;;;;1.60;1.20;;;21.30;39.00;;;;;;5091687;28;20988;-61
2021/11/07 04:43:07;;;;;;;1.63;1.30;;;21.30;38.40;;;;;;5091637;28;20389;-61
2021/11/07 04:45:33;;;;;;;1.30;1.10;;;21.30;38.40;;;;;;5091902;28;20443;-61
2021/11/07 04:48:01;;;;;;;1.70;1.25;;;21.30;38.40;;;;;;5091803;28;20430;-61
2021/11/07 04:50:27;;;;;;;1.48;1.15;;;21.30;38.40;;;;;;5091709;28;20394;-62
2021/11/07 04:52:54;;;;;;;1.27;1.08;;;21.30;38.30;;;;;;5091351;28;20382;-69
2021/11/07 04:55:19;;;;;;;1.77;1.25;;;21.30;38.40;;;;;;5091675;28;20809;-62
2021/11/07 04:57:45;;;;;;;1.67;1.30;;;21.30;38.30;;;;;;5091819;28;20881;-61
2021/11/07 05:00:19;;;;;;;1.30;1.00;;;21.30;38.20;;;;;;5091636;28;20497;-61
2021/11/07 05:02:45;;;;;;;1.52;1.17;;;21.30;38.20;;;;;;5091238;28;20431;-61
2021/11/07 05:05:11;;;;;;;1.33;1.05;;;21.30;38.20;;;;;;5092006;28;20784;-61
2021/11/07 05:07:38;;;;;;;1.50;1.30;;;21.30;38.30;;;;;;5091286;28;20877;-61
2021/11/07 05:10:04;;;;;;;1.20;1.00;;;21.30;38.20;;;;;;5091534;28;20390;-74
2021/11/07 05:12:30;;;;;;;1.48;1.15;;;21.30;38.20;;;;;;5091619;28;20390;-61
2021/11/07 05:14:56;;;;;;;1.53;1.20;;;21.30;38.30;;;;;;5091019;28;20510;-61
2021/11/07 05:17:22;;;;;;;1.30;1.08;;;21.30;38.30;;;;;;5091485;28;20383;-61
2021/11/07 05:19:48;;;;;;;1.30;1.02;;;21.30;38.30;;;;;;5091389;28;20394;-61
2021/11/07 05:22:14;;;;;;;1.30;0.90;;;21.30;38.30;;;;;;5073156;28;20425;-67
2021/11/07 05:24:40;;;;;;;1.73;1.10;;;21.30;38.40;;;;;;5091318;28;20721;-61
2021/11/07 05:27:05;;;;;;;1.35;1.10;;;21.30;38.40;;;;;;5091138;28;20394;-76
2021/11/07 05:29:31;;;;;;;1.33;1.00;;;21.30;38.40;;;;;;5073377;28;20492;-61
2021/11/07 05:31:59;;;;;;;1.30;1.20;;;21.30;38.40;;;;;;5091499;28;20550;-61
2021/11/07 05:34:24;;;;;;;1.27;1.10;;;21.30;38.40;;;;;;5091403;28;20386;-61
2021/11/07 05:36:51;;;;;;;2.05;1.20;;;21.20;38.30;;;;;;5091036;28;20898;-61
2021/11/07 05:39:17;;;;;;;1.42;1.05;;;21.30;38.40;;;;;;5106901;28;20390;-77
2021/11/07 05:41:43;;;;;;;1.58;1.10;;;21.30;38.30;;;;;;5091394;28;20398;-61
2021/11/07 05:44:09;;;;;;;1.53;1.00;;;21.30;38.30;;;;;;5091227;28;20481;-61
2021/11/07 05:46:35;;;;;;;1.38;1.15;;;21.20;38.20;;;;;;5091393;28;20381;-62
2021/11/07 05:49:00;;;;;;;1.20;1.00;;;21.20;38.20;;;;;;5090786;28;20398;-61
2021/11/07 05:51:26;;;;;;;1.33;0.90;;;21.20;38.20;;;;;;5091211;28;20443;-61
2021/11/07 05:53:52;;;;;;;1.52;1.27;;;21.20;38.80;;;;;;5091191;28;20395;-61
2021/11/07 05:56:18;;;;;;;1.40;1.00;;;21.20;38.20;;;;;;5091135;28;20390;-61
2021/11/07 05:58:43;;;;;;;1.58;1.10;;;21.20;38.20;;;;;;5090898;28;20422;-75
2021/11/07 06:01:09;;;;;;;1.50;1.20;;;21.30;38.30;;;;;;5090873;28;20784;-76
2021/11/07 06:03:35;;;;;;;1.50;1.10;;;21.20;38.20;;;;;;5091047;28;20386;-61
2021/11/07 06:06:01;;;;;;;1.65;1.20;;;21.30;38.30;;;;;;5091089;28;20416;-76
2021/11/07 06:08:28;;;;;;;1.50;1.10;;;21.20;38.30;;;;;;5090990;28;20371;-62
2021/11/07 06:10:53;;;;;;;1.50;1.10;;;21.20;38.30;;;;;;5090545;28;20390;-61
2021/11/07 06:13:19;;;;;;;1.42;1.10;;;21.30;38.30;;;;;;5090964;28;20748;-66
2021/11/07 06:15:45;;;;;;;1.37;1.00;;;21.30;38.30;;;;;;5090987;28;20451;-74
2021/11/07 06:18:10;;;;;;;1.80;1.20;;;21.30;38.20;;;;;;5090964;28;20382;-62
2021/11/07 06:20:36;;;;;;;1.57;1.10;;;21.30;38.20;;;;;;5093226;28;20439;-76
2021/11/07 06:23:04;;;;;;;1.50;1.10;;;21.30;38.20;;;;;;5094083;28;20481;-61
2021/11/07 06:25:30;;;;;;;1.40;1.05;;;21.30;38.20;;;;;;5094422;28;20455;-61
2021/11/07 06:27:55;;;;;;;2.00;1.10;;;21.30;38.10;;;;;;5094524;28;20394;-61
2021/11/07 06:30:21;;;;;;;2.20;1.20;;;21.20;38.10;;;;;;5094318;28;20451;-61
2021/11/07 06:32:47;;;;;;;1.40;1.17;;;21.20;38.10;;;;;;5076027;28;20386;-75
2021/11/07 06:35:14;;;;;;;2.10;1.20;;;21.20;38.10;;;;;;5094025;28;20405;-73
2021/11/07 06:37:41;;;;;;;1.40;1.10;;;21.30;38.10;;;;;;5094315;28;20386;-61
2021/11/07 06:40:09;;;;;;;1.50;1.20;;;21.20;38.00;;;;;;5094064;28;20434;-61
2021/11/07 06:42:35;;;;;;;1.80;1.10;;;21.30;38.10;;;;;;5094351;28;20443;-61
2021/11/07 06:45:01;;;;;;;1.40;1.20;;;21.20;38.00;;;;;;5093625;28;20743;-62
2021/11/07 06:47:27;;;;;;;1.47;1.13;;;21.20;38.10;;;;;;5094105;28;20421;-61
2021/11/07 06:49:53;;;;;;;1.38;1.10;;;21.20;38.10;;;;;;5094115;28;20439;-61
2021/11/07 06:52:20;;;;;;;1.63;1.17;;;21.20;38.20;;;;;;5093921;28;20378;-68
2021/11/07 06:54:46;;;;;;;2.30;1.20;;;21.20;38.20;;;;;;5093745;28;20447;-61
2021/11/07 06:57:12;;;;;;;1.60;1.30;;;21.20;38.20;;;;;;5093637;28;20397;-76
2021/11/07 06:59:37;;;;;;;1.97;1.10;;;21.30;38.20;;;;;;5093797;28;20406;-61
2021/11/07 07:02:03;;;;;;;1.70;1.15;;;21.30;38.10;;;;;;5075127;28;20394;-61
2021/11/07 07:04:29;;;;;;;1.58;1.20;;;21.30;38.10;;;;;;5073611;28;20410;-62
2021/11/07 07:06:55;;;;;;;1.90;1.20;;;21.30;38.10;;;;;;5073129;28;20448;-61
2021/11/07 07:09:25;;;;;;;1.50;1.08;;;21.30;38.10;;;;;;5073349;28;20376;-61
2021/11/07 07:12:02;;;;;;;1.83;1.20;;;21.30;38.00;;;;;;5073438;28;20384;-62
2021/11/07 07:14:35;;;;;;;1.90;1.30;;;21.30;38.00;;;;;;5055419;28;20416;-68
2021/11/07 07:17:23;;;;;;;1.63;1.20;;;21.20;37.90;;;;;;5072794;28;20467;-61
2021/11/07 07:19:57;;;;;;;2.03;1.23;;;21.30;37.90;;;;;;5073178;28;20403;-62
2021/11/07 07:27:35;;;;;;;1.77;1.38;;;21.30;37.80;;;;;;5073075;28;20445;-75
2021/11/07 07:34:55;;;;;;;1.70;1.20;;;21.30;37.70;;;;;;5072546;28;20899;-61
2021/11/07 07:37:21;;;;;;;1.70;1.20;;;21.30;37.70;;;;;;5072706;28;20468;-61
2021/11/07 07:39:48;;;;;;;1.83;1.30;;;21.30;37.80;;;;;;5072847;28;20984;-61
2021/11/07 07:42:14;;;;;;;2.30;1.33;;;21.30;37.60;;;;;;5054806;28;20407;-61
2021/11/07 07:44:40;;;;;;;1.88;1.30;;;21.40;37.60;;;;;;5072712;28;20403;-61
2021/11/07 07:47:06;;;;;;;1.80;1.30;;;21.40;37.60;;;;;;5072177;28;20387;-70
2021/11/07 07:49:31;;;;;;;1.70;1.30;;;21.40;37.60;;;;;;5054794;28;20399;-62
2021/11/07 07:51:58;;;;;;;1.80;1.42;;;21.40;37.50;;;;;;5072716;28;20423;-61
2021/11/07 07:54:24;;;;;;;1.60;1.20;;;21.40;37.40;;;;;;5072413;28;20392;-75
2021/11/07 07:56:52;;;;;;;1.60;1.30;;;21.40;37.50;;;;;;5072337;28;20722;-61
2021/11/07 07:59:17;;;;;;;1.52;1.20;;;21.50;37.50;;;;;;5072373;28;20487;-76
2021/11/07 08:01:43;;;;;;;1.70;1.37;;;21.50;37.30;;;;;;5072439;28;20495;-66
2021/11/07 08:04:09;;;;;;;1.80;1.30;;;21.50;37.20;;;;;;5054374;28;20777;-73
2021/11/07 08:06:35;;;;;;;1.65;1.33;;;21.50;37.20;;;;;;5072232;28;20994;-61
2021/11/07 08:09:02;;;;;;;1.75;1.30;;;21.50;37.10;;;;;;5071772;28;20384;-61
2021/11/07 08:11:27;;;;;;;1.75;1.30;;;21.50;37.10;;;;;;5054254;28;20753;-76
2021/11/07 08:13:53;;;;;;;1.97;1.60;;;21.60;37.20;;;;;;5072195;28;20388;-61
2021/11/07 08:16:20;;;;;;;1.80;1.50;;;21.50;37.10;;;;;;5072096;28;20388;-68
2021/11/07 08:18:47;;;;;;;1.88;1.25;;;21.50;37.30;;;;;;5072047;28;20467;-77
2021/11/07 08:21:13;;;;;;;1.73;1.45;;;21.60;37.30;;;;;;5071522;28;20445;-61
2021/11/07 08:23:39;;;;;;;1.52;1.20;;;21.60;37.30;;;;;;5071703;28;20402;-61
2021/11/07 08:26:05;;;;;;;2.60;1.57;;;21.60;37.40;;;;;;5071910;28;20444;-75
2021/11/07 08:28:32;;;;;;;1.58;1.23;;;21.60;37.30;;;;;;5071877;28;20423;-61
2021/11/07 08:31:21;;;;;;;1.58;1.30;;;21.60;37.30;;;;;;5071047;28;20399;-61
2021/11/07 08:33:47;;;;;;;1.70;1.40;;;21.70;37.30;;;;;;5053113;28;20399;-61
2021/11/07 08:36:39;;;;;;;1.90;1.50;;;21.70;37.20;;;;;;5071773;28;20747;-61
2021/11/07 08:39:08;;;;;;;1.55;1.25;;;21.70;37.30;;;;;;5070729;28;20392;-61
2021/11/07 08:41:42;;;;;;;1.50;1.20;;;21.70;37.30;;;;;;5071605;28;20419;-61
2021/11/07 09:00:27;;;;;;;2.40;1.50;;;21.70;37.20;;;;;;5072936;28;20475;-75
2021/11/07 09:08:25;;;;;;;3.00;1.50;;;21.80;37.00;;;;;;5076679;28;20387;-75
2021/11/07 09:10:52;;;;;;;3.30;1.85;;;22.00;37.00;;;;;;5078252;28;20405;-62
2021/11/07 09:13:18;;;;;;;3.05;1.70;;;22.00;37.00;;;;;;5079934;28;20398;-64
2021/11/07 09:15:46;;;;;;;2.27;1.50;;;21.90;37.10;;;;;;5078499;28;20388;-75
2021/11/07 09:18:12;;;;;;;2.45;1.50;;;22.00;36.90;;;;;;5060398;28;20585;-61
2021/11/07 09:20:47;;;;;;;2.60;1.50;;;21.90;37.60;;;;;;5079987;28;20837;-76
2021/11/07 09:23:27;;;;;;;2.40;1.55;;;21.90;37.60;;;;;;5079098;28;20392;-75
2021/11/07 09:28:45;;;;;;;2.38;1.42;;;21.90;37.60;;;;;;5077640;28;20946;-65
2021/11/07 09:36:36;;;;;;;3.20;1.60;;;22.00;37.10;;;;;;5078890;28;20749;-76
2021/11/07 09:39:18;;;;;;;1.80;1.40;;;22.00;36.90;;;;;;5078414;28;20393;-75
2021/11/07 09:44:15;;;;;;;1.90;1.27;;;22.10;37.10;;;;;;5089920;28;20385;-77
2021/11/07 09:49:21;;;;;;;1.85;1.40;;;22.00;36.90;;;;;;5089487;28;20403;-61
2021/11/07 09:51:54;;;;;;;1.57;1.20;;;22.00;37.00;;;;;;5089773;28;20941;-61
2021/11/07 09:54:21;;;;;;;1.73;1.20;;;22.00;37.10;;;;;;5090390;28;20401;-63
2021/11/07 09:56:51;;;;;;;1.50;1.23;;;22.00;37.20;;;;;;5093820;28;20470;-61
2021/11/07 09:59:19;;;;;;;1.98;1.25;;;22.00;37.10;;;;;;5093880;28;20389;-62
2021/11/07 10:01:51;;;;;;;1.55;1.30;;;22.00;37.10;;;;;;5093614;28;20471;-61
2021/11/07 10:04:22;;;;;;;1.80;1.40;;;22.00;37.10;;;;;;5093531;28;20378;-75
2021/11/07 10:06:51;;;;;;;1.75;1.30;;;22.00;37.20;;;;;;5075356;28;20402;-61
2021/11/07 10:09:38;;;;;;;1.45;1.15;;;22.00;37.30;;;;;;5093146;28;20390;-62
2021/11/07 10:12:08;;;;;;;1.35;1.10;;;22.00;37.30;;;;;;5093271;28;20801;-61
2021/11/07 10:14:55;;;;;;;1.63;1.20;;;22.00;37.30;;;;;;5093483;28;20389;-74
2021/11/07 10:17:27;;;;;;;1.30;1.00;;;22.00;37.20;;;;;;5093109;28;20473;-61
2021/11/07 10:20:10;;;;;;;1.98;1.20;;;22.00;37.10;;;;;;5093451;28;20401;-73
2021/11/07 10:22:38;;;;;;;1.75;1.30;;;22.00;37.10;;;;;;5093047;28;20445;-66
2021/11/07 10:25:09;;;;;;;1.33;1.10;;;22.00;37.10;;;;;;5092756;28;20415;-61
2021/11/07 10:27:40;;;;;;;1.30;1.00;;;22.10;37.10;;;;;;5093293;28;20393;-61
2021/11/07 10:30:15;;;;;;;1.63;1.00;;;22.10;37.10;;;;;;5094128;28;20390;-78
2021/11/07 10:32:54;;;;;;;1.50;1.10;;;22.10;37.00;;;;;;5094418;28;20397;-61
2021/11/07 10:38:07;;;;;;;1.42;1.15;;;22.00;37.00;;;;;;5087703;28;20753;-61
2021/11/07 10:44:16;;;;;;;1.70;0.90;;;22.00;37.00;;;;;;5079062;28;20378;-61
2021/11/07 10:52:05;;;;;;;1.20;0.90;;;22.00;37.10;;;;;;5078461;28;20386;-61
2021/11/07 10:54:25;;;;;;;1.50;0.80;;;22.00;37.20;;;;;;5078172;28;20946;-72
2021/11/07 10:57:17;;;;;;;1.17;0.85;;;22.00;37.90;;;;;;5063501;28;20426;-61
2021/11/07 11:00:12;;;;;;;1.50;0.90;;;22.00;37.40;;;;;;5076244;28;20538;-77
2021/11/07 11:02:51;;;;;;;1.17;0.80;;;22.00;37.30;;;;;;5079061;28;20402;-77
2021/11/07 11:05:42;;;;;;;1.20;0.82;;;22.00;37.40;;;;;;5073031;28;20442;-61
2021/11/07 11:08:25;;;;;;;1.10;0.80;;;22.00;37.40;;;;;;5055713;28;20742;-64
2021/11/07 11:16:20;;;;;;;1.47;0.87;;;22.00;37.40;;;;;;5073244;28;20392;-61
2021/11/07 11:19:07;;;;;;;1.27;0.77;;;22.00;37.30;;;;;;5055686;28;20819;-61
2021/11/07 11:27:12;;;;;;;2.00;0.80;;;22.00;37.20;;;;;;5073064;28;20745;-61
2021/11/07 11:34:49;;;;;;;0.80;0.60;;;22.00;37.40;;;;;;5072984;28;20442;-77
2021/11/07 11:42:43;;;;;;;1.50;0.80;;;22.00;37.40;;;;;;5055039;28;20743;-61
2021/11/07 11:45:12;;;;;;;1.08;0.70;;;22.10;37.40;;;;;;5072327;28;20762;-61
2021/11/07 11:50:46;;;;;;;1.00;0.70;;;22.10;37.50;;;;;;5072795;28;20909;-61
2021/11/07 11:53:23;;;;;;;1.63;0.60;;;22.10;38.10;;;;;;5072247;28;20403;-61
2021/11/07 11:56:01;;;;;;;2.13;0.50;;;22.10;37.60;;;;;;5072592;28;20415;-62
2021/11/07 11:59:04;;;;;;;1.98;0.68;;;22.10;37.50;;;;;;5056688;28;20427;-61
2021/11/07 12:01:35;;;;;;;1.27;0.65;;;22.00;37.60;;;;;;5072376;28;20415;-61
2021/11/07 12:09:23;;;;;;;8.48;0.85;;;22.10;37.30;;;;;;5081811;28;20397;-71
2021/11/07 12:12:09;;;;;;;2.00;0.60;;;22.00;37.10;;;;;;5077629;28;20484;-76
2021/11/07 12:15:14;;;;;;;5.45;0.90;;;22.00;36.70;;;;;;5079669;28;20904;-62
2021/11/07 12:17:45;;;;;;;3.42;0.80;;;21.90;35.50;;;;;;5076844;28;20473;-66
2021/11/07 12:20:48;;;;;;;1.87;0.60;;;22.20;38.70;;;;;;5080550;28;20858;-63
2021/11/07 12:23:35;;;;;;;4.38;0.80;;;22.50;37.70;;;;;;5071705;28;20422;-62
2021/11/07 12:26:39;;;;;;;4.63;0.80;;;22.70;37.60;;;;;;5084217;28;20384;-67
2021/11/07 12:29:05;;;;;;;4.40;0.70;;;22.80;38.00;;;;;;4999636;28;20402;-67
2021/11/07 12:31:32;;;;;;;3.63;0.70;;;22.90;37.60;;;;;;4997868;28;20757;-72
2021/11/07 12:34:25;;;;;;;5.47;0.70;;;23.00;37.60;;;;;;5036952;28;20401;-65
2021/11/07 12:42:25;;;;;;;3.63;0.52;;;23.30;37.50;;;;;;5063766;28;20381;-62
2021/11/07 12:44:53;;;;;;;4.15;0.90;;;23.40;37.20;;;;;;5082397;28;20400;-65
2021/11/07 12:47:25;;;;;;;2.80;0.60;;;23.50;37.70;;;;;;5063890;28;20490;-67
2021/11/07 12:50:01;;;;;;;3.58;0.60;;;23.70;37.80;;;;;;5079365;28;20404;-72
2021/11/07 12:52:27;;;;;;;2.88;0.60;;;23.80;37.70;;;;;;5061389;28;20392;-66
2021/11/07 12:54:53;;;;;;;2.53;0.50;;;23.90;37.50;;;;;;5097001;28;20382;-61
2021/11/07 12:57:22;;;;;;;1.98;0.50;;;23.90;37.80;;;;;;5080125;28;20835;-72
2021/11/07 12:59:53;;;;;;;3.65;0.50;;;24.00;37.50;;;;;;5078894;28;20403;-68
2021/11/07 13:02:21;;;;;;;1.35;0.47;;;24.10;37.40;;;;;;5080114;28;20386;-72
2021/11/07 13:05:00;;;;;;;2.38;0.57;;;24.20;37.40;;;;;;5081552;28;20389;-62
2021/11/07 13:07:33;;;;;;;2.30;0.50;;;24.20;37.70;;;;;;5080583;28;20398;-62
2021/11/07 13:10:08;;;;;;;1.98;0.60;;;24.30;37.60;;;;;;5080194;28;20384;-72
2021/11/07 13:12:38;;;;;;;2.35;0.50;;;24.40;36.90;;;;;;5079416;28;20422;-62
2021/11/07 13:28:32;;;;;;;2.20;0.60;;;24.70;36.60;;;;;;5080597;28;20421;-61
2021/11/07 13:31:04;;;;;;;3.15;0.50;;;24.70;36.70;;;;;;5083423;28;20403;-72
2021/11/07 13:33:31;;;;;;;2.60;0.57;;;24.80;36.80;;;;;;5080719;28;20437;-61
2021/11/07 13:35:58;;;;;;;2.85;0.50;;;24.90;36.50;;;;;;5083534;28;20823;-66
2021/11/07 13:38:26;;;;;;;3.83;0.60;;;25.00;36.90;;;;;;5082267;28;20507;-66
2021/11/07 13:40:52;;;;;;;4.05;0.50;;;25.00;36.40;;;;;;5084340;28;20414;-63
2021/11/07 13:43:25;;;;;;;4.15;0.50;;;25.10;36.30;;;;;;5077038;28;20918;-62
2021/11/07 13:45:53;;;;;;;2.50;0.63;;;25.10;36.00;;;;;;5082599;28;20485;-70
2021/11/07 13:48:24;;;;;;;3.00;0.50;;;25.20;36.00;;;;;;5081119;28;20391;-66
2021/11/07 13:50:53;;;;;;;2.67;0.50;;;25.20;36.20;;;;;;5082564;28;20386;-64
2021/11/07 13:53:24;;;;;;;2.90;0.50;;;25.30;36.00;;;;;;5083570;28;20384;-74
2021/11/07 13:55:52;;;;;;;1.33;0.43;;;25.40;35.80;;;;;;5074939;28;20406;-63
2021/11/07 13:58:22;;;;;;;1.93;0.40;;;25.50;36.10;;;;;;5082968;28;20396;-67
2021/11/07 14:00:51;;;;;;;2.92;0.50;;;25.50;35.90;;;;;;5084272;28;20500;-68
2021/11/07 14:03:18;;;;;;;1.92;0.40;;;25.50;35.80;;;;;;5066935;28;20471;-69
2021/11/07 14:06:08;;;;;;;3.33;0.60;;;25.50;36.40;;;;;;5091421;28;20397;-71
2021/11/07 14:08:43;;;;;;;2.83;0.40;;;25.50;36.40;;;;;;5094841;28;20549;-63
2021/11/07 14:11:10;;;;;;;2.08;0.50;;;25.60;36.20;;;;;;5094184;28;20443;-65
2021/11/07 14:13:48;;;;;;;2.78;0.45;;;25.60;35.60;;;;;;5094551;28;20390;-75
2021/11/07 14:16:16;;;;;;;1.42;0.40;;;25.60;36.50;;;;;;5094732;28;20398;-73
2021/11/07 14:18:47;;;;;;;2.72;0.45;;;25.60;35.60;;;;;;5094754;28;20382;-62
2021/11/07 14:21:15;;;;;;;2.42;0.50;;;25.60;35.30;;;;;;5093631;28;20456;-74
2021/11/07 14:24:27;;;;;;;2.17;0.50;;;25.60;35.70;;;;;;5094557;28;20386;-70
2021/11/07 14:29:31;;;;;;;1.80;0.50;;;25.60;35.30;;;;;;5094553;28;20408;-75
2021/11/07 14:32:10;;;;;;;1.60;0.40;;;25.60;35.20;;;;;;5075989;28;20382;-67
2021/11/07 14:34:56;;;;;;;1.88;0.30;;;25.60;35.00;;;;;;5094248;28;20378;-75
2021/11/07 14:37:28;;;;;;;2.60;0.40;;;25.60;35.10;;;;;;5074928;28;20443;-64
2021/11/07 14:40:07;;;;;;;1.50;0.30;;;25.60;35.00;;;;;;5093360;28;20458;-67
2021/11/07 14:51:16;;;;;;;1.42;0.43;;;25.70;34.70;;;;;;5085600;28;20428;-63
2021/11/07 15:05:09;;;;;;;1.70;0.40;;;25.50;34.60;;;;;;5093810;28;20432;-75
2021/11/07 15:07:39;;;;;;;2.03;0.47;;;25.50;34.70;;;;;;5093559;28;20390;-74
2021/11/07 15:10:21;;;;;;;1.13;0.40;;;25.40;34.70;;;;;;5075420;28;20481;-72
2021/11/07 15:15:35;;;;;;;0.73;0.35;;;25.30;34.80;;;;;;5093377;28;20470;-74
2021/11/07 15:18:57;;;;;;;0.60;0.37;;;25.20;34.80;;;;;;5093599;28;20428;-74
2021/11/07 15:21:26;;;;;;;1.25;0.30;;;25.10;34.70;;;;;;5088657;28;20422;-72
2021/11/07 15:24:36;;;;;;;1.00;0.40;;;25.10;34.90;;;;;;5093572;28;20390;-63
2021/11/07 15:27:02;;;;;;;1.00;0.40;;;25.00;34.80;;;;;;5072364;28;20393;-63
2021/11/07 15:29:35;;;;;;;0.70;0.30;;;25.00;34.80;;;;;;5092961;28;20465;-63
2021/11/07 15:32:03;;;;;;;1.50;0.40;;;24.90;34.80;;;;;;5093332;28;20404;-63
2021/11/07 15:34:35;;;;;;;0.90;0.35;;;24.90;34.90;;;;;;5093302;28;20381;-73
2021/11/07 15:37:03;;;;;;;0.88;0.30;;;24.90;34.90;;;;;;5093016;28;20736;-74
2021/11/07 15:39:32;;;;;;;0.70;0.30;;;24.90;35.00;;;;;;5092788;28;20929;-63
2021/11/07 15:42:05;;;;;;;0.88;0.30;;;24.80;34.90;;;;;;5092749;28;20421;-62
2021/11/07 15:44:34;;;;;;;6.60;0.70;;;24.70;34.90;;;;;;5074767;28;20392;-63
2021/11/07 15:47:02;;;;;;;7.72;0.65;;;24.60;35.00;;;;;;5092878;28;20399;-65
2021/11/07 15:49:32;;;;;;;4.75;0.60;;;24.40;35.30;;;;;;5092501;28;20386;-77